Time;durP1;ratioP1;P1;durP2;ratioP2;P2;SDS_P1;SDS_P2;PMS_P1;PMS_P2;Temp;Humidity;BMP_temperature;BMP_pressure;BME280_temperature;BME280_humidity;BME280_pressure;Samples;Min_cycle;Max_cycle;Signal;HPM_P1;HPM_P2
2022/07/21 00:00:42;;;;;;;12.17;10.97;;;;;;;;;;5033321;28;20190;-79
2022/07/21 00:03:08;;;;;;;11.90;10.80;;;;;;;;;;5031379;28;20206;-79
2022/07/21 00:05:34;;;;;;;11.67;10.53;;;;;;;;;;5032759;28;20202;-79
2022/07/21 00:08:01;;;;;;;12.20;11.00;;;;;;;;;;5034624;28;20218;-79
2022/07/21 00:10:28;;;;;;;11.80;10.60;;;;;;;;;;5036641;28;20709;-79
2022/07/21 00:12:54;;;;;;;11.53;10.43;;;;;;;;;;5034367;28;20205;-79
2022/07/21 00:15:26;;;;;;;11.97;10.83;;;;;;;;;;5036848;28;20692;-79
2022/07/21 00:18:01;;;;;;;11.27;10.17;;;;;;;;;;5036874;28;20174;-79
2022/07/21 00:20:33;;;;;;;11.20;10.10;;;;;;;;;;5031933;28;20194;-79
2022/07/21 00:23:09;;;;;;;12.77;10.47;;;;;;;;;;5037119;28;20210;-79
2022/07/21 00:25:47;;;;;;;12.23;10.77;;;;;;;;;;5033752;28;20261;-79
2022/07/21 00:28:25;;;;;;;11.60;10.50;;;;;;;;;;5037223;28;20198;-79
2022/07/21 00:30:57;;;;;;;12.33;10.87;;;;;;;;;;5034292;28;20229;-79
2022/07/21 00:33:23;;;;;;;12.97;11.73;;;;;;;;;;5035305;28;20327;-79
2022/07/21 00:35:49;;;;;;;12.43;11.23;;;;;;;;;;5033839;28;20549;-79
2022/07/21 00:38:15;;;;;;;12.43;11.30;;;;;;;;;;5031552;28;20174;-79
2022/07/21 00:40:42;;;;;;;13.37;12.07;;;;;;;;;;5036937;28;20184;-79
2022/07/21 00:43:08;;;;;;;14.87;12.43;;;;;;;;;;5036159;28;20199;-79
2022/07/21 00:45:34;;;;;;;13.37;11.97;;;;;;;;;;5036173;28;20187;-79
2022/07/21 00:48:00;;;;;;;13.07;11.87;;;;;;;;;;5031639;28;20187;-79
2022/07/21 00:50:26;;;;;;;13.10;11.63;;;;;;;;;;5032243;28;20211;-79
2022/07/21 00:52:53;;;;;;;13.27;11.97;;;;;;;;;;5036108;28;20214;-79
2022/07/21 00:55:21;;;;;;;14.97;12.77;;;;;;;;;;5035487;28;20556;-79
2022/07/21 00:57:48;;;;;;;15.17;13.57;;;;;;;;;;5036049;28;20179;-79
2022/07/21 01:00:16;;;;;;;14.17;12.77;;;;;;;;;;5033442;28;20194;-79
2022/07/21 01:02:42;;;;;;;14.87;13.37;;;;;;;;;;5034259;28;20587;-79
2022/07/21 01:05:12;;;;;;;14.77;13.30;;;;;;;;;;5035890;28;20272;-79
2022/07/21 01:07:42;;;;;;;15.47;13.90;;;;;;;;;;5036311;28;20186;-79
2022/07/21 01:10:09;;;;;;;14.60;13.20;;;;;;;;;;5034739;28;20206;-79
2022/07/21 01:12:35;;;;;;;14.60;13.20;;;;;;;;;;5033549;28;20213;-79
2022/07/21 01:15:01;;;;;;;15.10;13.67;;;;;;;;;;5035696;28;20186;-79
2022/07/21 01:17:27;;;;;;;15.33;13.73;;;;;;;;;;5034721;28;20634;-79
2022/07/21 01:19:54;;;;;;;15.90;13.13;;;;;;;;;;5032544;28;20182;-79
2022/07/21 01:22:20;;;;;;;14.80;13.47;;;;;;;;;;5033022;28;20239;-79
2022/07/21 01:24:46;;;;;;;13.60;12.30;;;;;;;;;;5036227;28;20187;-79
2022/07/21 01:27:12;;;;;;;15.10;13.27;;;;;;;;;;5035514;28;20642;-79
2022/07/21 01:29:38;;;;;;;13.70;12.40;;;;;;;;;;5036821;28;20260;-79
2022/07/21 01:32:05;;;;;;;14.20;12.80;;;;;;;;;;5034525;28;20233;-79
2022/07/21 01:34:31;;;;;;;13.77;12.47;;;;;;;;;;5038363;28;20217;-79
2022/07/21 01:36:57;;;;;;;14.10;12.57;;;;;;;;;;5036264;28;20269;-79
2022/07/21 01:42:09;;;;;;;16.00;14.20;;;;;;;;;;5014544;28;20216;-79
2022/07/21 01:44:35;;;;;;;15.90;14.30;;;;;;;;;;5034533;28;21036;-79
2022/07/21 01:47:02;;;;;;;15.93;14.33;;;;;;;;;;5032352;28;20191;-79
2022/07/21 01:49:28;;;;;;;16.17;14.57;;;;;;;;;;5027085;28;20225;-79
2022/07/21 01:51:54;;;;;;;15.90;14.33;;;;;;;;;;5033386;28;20229;-79
2022/07/21 01:54:20;;;;;;;15.83;14.23;;;;;;;;;;5033821;28;20681;-79
2022/07/21 01:56:46;;;;;;;18.07;15.10;;;;;;;;;;5033329;28;20638;-79
2022/07/21 01:59:12;;;;;;;17.27;15.60;;;;;;;;;;5033054;28;20183;-79
2022/07/21 02:01:39;;;;;;;17.13;15.43;;;;;;;;;;5032973;28;20225;-79
2022/07/21 02:04:05;;;;;;;17.17;15.60;;;;;;;;;;5032136;28;20187;-79
2022/07/21 02:06:32;;;;;;;18.63;16.93;;;;;;;;;;5026817;28;20179;-79
2022/07/21 02:09:02;;;;;;;17.93;16.10;;;;;;;;;;5033599;28;20321;-79
2022/07/21 02:11:39;;;;;;;16.03;14.43;;;;;;;;;;5047662;28;20205;-79
2022/07/21 02:14:15;;;;;;;17.33;15.70;;;;;;;;;;5033916;28;20581;-79
2022/07/21 02:16:52;;;;;;;18.60;15.77;;;;;;;;;;5029389;28;20305;-79
2022/07/21 02:19:28;;;;;;;18.20;15.70;;;;;;;;;;5030180;28;20190;-79
2022/07/21 02:22:07;;;;;;;17.07;15.40;;;;;;;;;;5031024;28;20256;-79
2022/07/21 02:24:40;;;;;;;15.73;14.23;;;;;;;;;;5032891;28;20186;-79
2022/07/21 02:27:17;;;;;;;16.93;15.23;;;;;;;;;;5035145;28;20231;-79
2022/07/21 02:29:53;;;;;;;16.33;14.83;;;;;;;;;;5031888;28;20209;-79
2022/07/21 02:32:30;;;;;;;16.80;15.20;;;;;;;;;;5045653;28;20210;-79
2022/07/21 02:35:10;;;;;;;15.40;13.87;;;;;;;;;;5030430;28;20740;-79
2022/07/21 02:37:47;;;;;;;17.53;15.77;;;;;;;;;;5027217;28;20186;-79
2022/07/21 02:40:27;;;;;;;16.77;15.20;;;;;;;;;;5032621;28;20558;-79
2022/07/21 02:43:05;;;;;;;15.93;14.33;;;;;;;;;;5031044;28;20324;-79
2022/07/21 02:45:43;;;;;;;16.50;14.80;;;;;;;;;;5030520;28;20190;-79
2022/07/21 02:48:20;;;;;;;19.17;16.03;;;;;;;;;;5029337;28;20197;-79
2022/07/21 02:50:56;;;;;;;19.30;17.40;;;;;;;;;;5031281;28;20206;-79
2022/07/21 02:53:32;;;;;;;18.77;16.87;;;;;;;;;;5032620;28;20206;-79
2022/07/21 02:56:09;;;;;;;20.20;18.03;;;;;;;;;;5026385;28;20178;-79
2022/07/21 02:58:46;;;;;;;19.40;17.37;;;;;;;;;;5030024;28;20593;-79
2022/07/21 03:01:23;;;;;;;18.77;16.93;;;;;;;;;;5031145;28;20268;-79
2022/07/21 03:04:00;;;;;;;17.90;16.17;;;;;;;;;;5030802;28;20194;-79
2022/07/21 03:06:37;;;;;;;18.23;16.33;;;;;;;;;;5034088;28;20699;-79
2022/07/21 03:09:14;;;;;;;20.00;18.13;;;;;;;;;;5027513;28;20314;-79
2022/07/21 03:11:51;;;;;;;21.27;19.07;;;;;;;;;;5032039;28;20202;-79
2022/07/21 03:14:27;;;;;;;18.87;17.07;;;;;;;;;;5030467;28;20224;-79
2022/07/21 03:17:04;;;;;;;18.10;16.30;;;;;;;;;;5030289;28;20658;-79
2022/07/21 03:19:42;;;;;;;19.90;17.97;;;;;;;;;;5028397;28;20233;-79
2022/07/21 03:22:19;;;;;;;19.53;17.63;;;;;;;;;;5022207;28;20298;-79
2022/07/21 03:24:56;;;;;;;19.17;17.47;;;;;;;;;;5032554;28;20190;-79
2022/07/21 03:27:35;;;;;;;18.43;16.57;;;;;;;;;;5032642;28;20190;-79
2022/07/21 03:30:12;;;;;;;18.17;16.40;;;;;;;;;;5028504;28;20237;-79
2022/07/21 03:32:48;;;;;;;19.10;17.20;;;;;;;;;;5031086;28;20202;-79
2022/07/21 03:35:26;;;;;;;19.30;17.50;;;;;;;;;;5023188;28;20223;-79
2022/07/21 03:38:03;;;;;;;20.00;17.90;;;;;;;;;;5032893;28;20232;-79
2022/07/21 03:40:40;;;;;;;19.40;17.50;;;;;;;;;;5037978;28;20201;-79
2022/07/21 03:43:17;;;;;;;19.23;17.33;;;;;;;;;;5029006;28;20739;-79
2022/07/21 03:45:50;;;;;;;18.60;16.67;;;;;;;;;;5034533;28;20226;-79
2022/07/21 03:48:20;;;;;;;19.00;16.73;;;;;;;;;;5037733;28;20198;-79
2022/07/21 03:50:57;;;;;;;17.73;16.13;;;;;;;;;;5019609;28;20224;-79
2022/07/21 03:53:34;;;;;;;17.50;15.87;;;;;;;;;;5037786;28;20194;-79
2022/07/21 03:56:11;;;;;;;19.93;18.13;;;;;;;;;;5013709;28;20561;-79
2022/07/21 03:58:47;;;;;;;18.10;16.43;;;;;;;;;;5035043;28;20197;-79
2022/07/21 04:01:23;;;;;;;17.93;16.17;;;;;;;;;;5033490;28;20181;-79
2022/07/21 04:03:58;;;;;;;18.73;16.97;;;;;;;;;;5038300;28;20186;-79
2022/07/21 04:06:29;;;;;;;17.50;15.73;;;;;;;;;;5039113;28;20301;-80
2022/07/21 04:09:05;;;;;;;17.57;15.97;;;;;;;;;;5037135;28;20209;-79
2022/07/21 04:11:42;;;;;;;18.07;16.37;;;;;;;;;;5033601;28;20205;-79
2022/07/21 04:14:19;;;;;;;18.77;16.97;;;;;;;;;;5036972;28;20214;-79
2022/07/21 04:16:55;;;;;;;19.23;17.43;;;;;;;;;;5036115;28;20660;-79
2022/07/21 04:19:32;;;;;;;17.80;16.10;;;;;;;;;;5033935;28;20611;-79
2022/07/21 04:22:09;;;;;;;18.00;16.40;;;;;;;;;;5034858;28;20276;-79
2022/07/21 04:24:45;;;;;;;18.50;16.70;;;;;;;;;;5038151;28;20261;-79
2022/07/21 04:27:22;;;;;;;18.47;16.77;;;;;;;;;;5037482;28;20194;-79
2022/07/21 04:29:59;;;;;;;18.47;16.73;;;;;;;;;;5035168;28;20753;-79
2022/07/21 04:32:36;;;;;;;18.20;16.50;;;;;;;;;;5039476;28;20300;-79
2022/07/21 04:35:13;;;;;;;18.50;16.70;;;;;;;;;;5029158;28;20222;-79
2022/07/21 04:37:50;;;;;;;17.13;15.53;;;;;;;;;;5033333;28;20193;-79
2022/07/21 04:40:26;;;;;;;16.87;15.27;;;;;;;;;;5038352;28;20542;-79
2022/07/21 04:43:02;;;;;;;15.90;14.30;;;;;;;;;;5032486;28;20226;-79
2022/07/21 04:45:39;;;;;;;16.70;14.80;;;;;;;;;;5035627;28;20650;-79
2022/07/21 04:48:15;;;;;;;17.60;13.60;;;;;;;;;;5029431;28;20183;-79
2022/07/21 04:50:53;;;;;;;13.77;12.47;;;;;;;;;;5032806;28;20229;-79
2022/07/21 04:53:29;;;;;;;12.70;11.50;;;;;;;;;;5036169;28;20279;-79
2022/07/21 04:56:07;;;;;;;13.17;11.97;;;;;;;;;;5031322;28;20182;-79
2022/07/21 04:58:43;;;;;;;12.57;11.47;;;;;;;;;;5028220;28;21121;-79
2022/07/21 05:01:20;;;;;;;12.83;11.60;;;;;;;;;;5031192;28;20189;-79
2022/07/21 05:03:56;;;;;;;12.67;11.43;;;;;;;;;;5031882;28;20179;-79
2022/07/21 05:06:33;;;;;;;12.00;10.80;;;;;;;;;;5027795;28;20183;-79
2022/07/21 05:09:10;;;;;;;12.07;10.87;;;;;;;;;;5034354;28;20221;-80
2022/07/21 05:11:46;;;;;;;12.23;11.03;;;;;;;;;;5033545;28;20237;-81
2022/07/21 05:14:23;;;;;;;11.57;10.53;;;;;;;;;;5034067;28;20189;-79
2022/07/21 05:17:01;;;;;;;11.27;10.17;;;;;;;;;;5030701;28;20265;-75
2022/07/21 05:19:37;;;;;;;12.00;10.80;;;;;;;;;;5030679;28;20193;-75
2022/07/21 05:22:14;;;;;;;12.17;10.20;;;;;;;;;;5022685;28;20214;-74
2022/07/21 05:24:50;;;;;;;10.87;9.87;;;;;;;;;;5026190;28;20182;-78
2022/07/21 05:27:28;;;;;;;11.43;10.33;;;;;;;;;;5023420;28;20222;-78
2022/07/21 05:30:03;;;;;;;10.73;9.73;;;;;;;;;;5041409;28;20221;-75
2022/07/21 05:32:40;;;;;;;11.73;10.50;;;;;;;;;;5009400;28;20206;-74
2022/07/21 05:35:16;;;;;;;10.57;9.50;;;;;;;;;;5029069;28;20260;-74
2022/07/21 05:37:53;;;;;;;9.63;8.73;;;;;;;;;;5026915;28;20601;-74
2022/07/21 05:40:30;;;;;;;10.40;9.23;;;;;;;;;;5023817;28;20194;-74
2022/07/21 05:43:06;;;;;;;10.60;9.43;;;;;;;;;;5022956;28;20201;-74
2022/07/21 05:45:42;;;;;;;11.07;10.10;;;;;;;;;;5013688;28;20194;-74
2022/07/21 05:48:08;;;;;;;11.80;10.60;;;;;;;;;;5027129;28;20575;-74
2022/07/21 05:50:39;;;;;;;11.40;10.30;;;;;;;;;;5026076;28;20206;-74
2022/07/21 05:53:16;;;;;;;11.20;9.30;;;;;;;;;;5023561;28;20217;-74
2022/07/21 05:55:53;;;;;;;10.57;9.50;;;;;;;;;;5020515;28;20186;-75
2022/07/21 05:58:30;;;;;;;11.13;10.03;;;;;;;;;;5022838;28;20174;-75
2022/07/21 06:01:09;;;;;;;11.10;10.10;;;;;;;;;;5019837;28;20830;-75
2022/07/21 06:03:47;;;;;;;10.77;9.77;;;;;;;;;;5028104;28;20190;-75
2022/07/21 06:06:24;;;;;;;10.77;9.77;;;;;;;;;;5021558;28;20182;-75
2022/07/21 06:09:00;;;;;;;11.77;10.57;;;;;;;;;;5020741;28;20183;-79
2022/07/21 06:11:37;;;;;;;13.27;10.97;;;;;;;;;;5024062;28;20198;-83
2022/07/21 06:14:13;;;;;;;12.10;10.97;;;;;;;;;;5031513;28;20175;-83
2022/07/21 06:16:51;;;;;;;11.27;10.27;;;;;;;;;;5023010;28;20271;-82
2022/07/21 06:19:28;;;;;;;11.40;10.30;;;;;;;;;;5028443;28;20199;-77
2022/07/21 06:22:05;;;;;;;11.83;10.40;;;;;;;;;;5028635;28;20202;-77
2022/07/21 06:24:42;;;;;;;12.97;10.87;;;;;;;;;;5027272;28;20186;-77
2022/07/21 06:27:19;;;;;;;11.87;10.67;;;;;;;;;;5029806;28;20232;-77
2022/07/21 06:29:56;;;;;;;11.57;10.47;;;;;;;;;;5029857;28;20244;-77
2022/07/21 06:32:33;;;;;;;10.70;9.70;;;;;;;;;;5030514;28;20728;-76
2022/07/21 06:35:10;;;;;;;10.10;9.20;;;;;;;;;;5028359;28;20175;-78
2022/07/21 06:37:50;;;;;;;10.27;9.33;;;;;;;;;;5015645;28;20186;-77
2022/07/21 06:40:27;;;;;;;10.77;9.57;;;;;;;;;;5027758;28;20236;-77
2022/07/21 06:43:03;;;;;;;11.40;9.40;;;;;;;;;;5030474;28;20214;-77
2022/07/21 06:45:40;;;;;;;9.27;8.37;;;;;;;;;;5028643;28;20186;-77
2022/07/21 06:48:16;;;;;;;9.50;8.60;;;;;;;;;;5020332;28;20190;-76
2022/07/21 06:50:53;;;;;;;10.03;9.07;;;;;;;;;;5030012;28;20677;-77
2022/07/21 06:53:30;;;;;;;9.70;8.73;;;;;;;;;;5036731;28;20201;-77
2022/07/21 06:56:06;;;;;;;9.30;8.37;;;;;;;;;;5031771;28;20285;-77
2022/07/21 06:58:44;;;;;;;9.87;8.47;;;;;;;;;;5029869;28;20273;-77
2022/07/21 07:01:20;;;;;;;9.47;8.53;;;;;;;;;;5028769;28;20214;-77
2022/07/21 07:03:58;;;;;;;9.40;8.20;;;;;;;;;;5024756;28;20650;-77
2022/07/21 07:06:33;;;;;;;9.10;8.20;;;;;;;;;;5029512;28;20200;-77
2022/07/21 07:09:11;;;;;;;9.30;8.40;;;;;;;;;;5029729;28;20271;-77
2022/07/21 07:11:47;;;;;;;9.67;8.77;;;;;;;;;;5024979;28;20203;-77
2022/07/21 07:14:20;;;;;;;9.97;8.60;;;;;;;;;;5028152;28;20190;-77
2022/07/21 07:16:50;;;;;;;10.73;8.97;;;;;;;;;;5031406;28;20205;-77
2022/07/21 07:19:27;;;;;;;10.10;9.07;;;;;;;;;;5030732;28;20545;-78
2022/07/21 07:22:04;;;;;;;10.00;9.00;;;;;;;;;;5027995;28;20221;-78
2022/07/21 07:24:41;;;;;;;10.70;9.60;;;;;;;;;;5024671;28;20205;-77
2022/07/21 07:27:17;;;;;;;10.13;9.13;;;;;;;;;;5037046;28;20194;-77
2022/07/21 07:29:54;;;;;;;9.63;8.63;;;;;;;;;;5030471;28;20217;-77
2022/07/21 07:32:32;;;;;;;9.70;8.90;;;;;;;;;;5030938;28;20202;-77
2022/07/21 07:35:08;;;;;;;10.17;9.20;;;;;;;;;;5032865;28;20194;-77
2022/07/21 07:37:46;;;;;;;10.47;9.43;;;;;;;;;;5024314;28;20188;-77
2022/07/21 07:40:25;;;;;;;10.33;8.50;;;;;;;;;;5028542;28;20183;-77
2022/07/21 07:43:01;;;;;;;8.50;7.80;;;;;;;;;;5026601;28;20674;-78
2022/07/21 07:45:38;;;;;;;9.67;8.33;;;;;;;;;;5029151;28;20670;-77
2022/07/21 07:48:05;;;;;;;9.03;8.13;;;;;;;;;;5030535;28;20261;-77
2022/07/21 07:50:36;;;;;;;8.83;8.03;;;;;;;;;;5030538;28;20250;-77
2022/07/21 07:53:13;;;;;;;8.83;8.03;;;;;;;;;;5024980;28;20214;-77
2022/07/21 07:55:49;;;;;;;8.30;7.50;;;;;;;;;;5025845;28;20246;-78
2022/07/21 07:58:26;;;;;;;7.53;6.90;;;;;;;;;;5029095;28;20202;-77
2022/07/21 08:01:03;;;;;;;8.53;7.73;;;;;;;;;;5028776;28;20196;-77
2022/07/21 08:03:40;;;;;;;8.13;7.33;;;;;;;;;;5030436;28;20183;-78
2022/07/21 08:06:17;;;;;;;8.50;7.70;;;;;;;;;;5030657;28;20213;-77
2022/07/21 08:08:50;;;;;;;8.57;7.67;;;;;;;;;;5025106;28;20190;-77
2022/07/21 08:11:20;;;;;;;7.83;7.03;;;;;;;;;;5029348;28;20689;-78
2022/07/21 08:13:57;;;;;;;9.20;7.57;;;;;;;;;;5023458;28;20191;-78
2022/07/21 08:16:33;;;;;;;8.33;7.33;;;;;;;;;;5028965;28;20228;-78
2022/07/21 08:19:11;;;;;;;8.63;7.80;;;;;;;;;;5035046;28;20195;-77
2022/07/21 08:21:48;;;;;;;9.10;8.20;;;;;;;;;;5028806;28;20298;-77
2022/07/21 08:24:24;;;;;;;9.03;8.13;;;;;;;;;;5025031;28;20201;-78
2022/07/21 08:27:01;;;;;;;9.43;8.30;;;;;;;;;;5030472;28;20182;-77
2022/07/21 08:29:37;;;;;;;10.00;8.50;;;;;;;;;;5024817;28;20241;-77
2022/07/21 08:32:09;;;;;;;9.43;8.57;;;;;;;;;;5032082;28;20682;-77
2022/07/21 08:34:39;;;;;;;9.33;8.43;;;;;;;;;;5031833;28;20186;-78
2022/07/21 08:37:16;;;;;;;9.03;8.13;;;;;;;;;;5029716;28;20556;-77
2022/07/21 08:39:53;;;;;;;8.70;7.90;;;;;;;;;;5046271;28;20588;-77
2022/07/21 08:42:30;;;;;;;9.37;7.90;;;;;;;;;;5017579;28;20260;-78
2022/07/21 08:45:07;;;;;;;9.07;8.23;;;;;;;;;;5030135;28;20265;-78
2022/07/21 08:47:45;;;;;;;7.93;7.23;;;;;;;;;;5024642;28;21929;-77
2022/07/21 08:50:23;;;;;;;8.17;7.30;;;;;;;;;;5028438;28;20254;-77
2022/07/21 08:52:58;;;;;;;8.30;7.50;;;;;;;;;;5025598;28;20218;-77
2022/07/21 08:55:42;;;;;;;8.60;7.80;;;;;;;;;;5026657;28;20193;-77
2022/07/21 08:58:19;;;;;;;8.77;7.97;;;;;;;;;;5030574;28;20331;-78
2022/07/21 09:00:54;;;;;;;12.27;7.53;;;;;;;;;;5027602;28;20277;-78
2022/07/21 09:03:32;;;;;;;8.10;7.37;;;;;;;;;;5028101;28;20213;-77
2022/07/21 09:06:15;;;;;;;8.33;7.53;;;;;;;;;;5031209;28;20190;-77
2022/07/21 09:08:58;;;;;;;8.90;8.20;;;;;;;;;;5029127;28;20187;-77
2022/07/21 09:11:35;;;;;;;8.50;7.70;;;;;;;;;;5024402;28;20571;-77
2022/07/21 09:14:21;;;;;;;8.67;7.17;;;;;;;;;;5028782;28;20349;-77
2022/07/21 09:16:53;;;;;;;8.90;8.00;;;;;;;;;;5026450;28;20183;-77
2022/07/21 09:19:38;;;;;;;8.40;7.67;;;;;;;;;;5029112;28;20183;-77
2022/07/21 09:22:16;;;;;;;8.97;7.97;;;;;;;;;;5024624;28;20219;-77
2022/07/21 09:24:51;;;;;;;8.20;7.30;;;;;;;;;;5027902;28;20213;-77
2022/07/21 09:27:29;;;;;;;8.77;7.87;;;;;;;;;;5028733;28;20195;-77
2022/07/21 09:30:08;;;;;;;8.27;7.47;;;;;;;;;;5044264;28;20213;-77
2022/07/21 09:32:40;;;;;;;8.90;7.10;;;;;;;;;;5033764;28;20205;-78
2022/07/21 09:35:16;;;;;;;8.17;7.40;;;;;;;;;;5028172;28;20187;-77
2022/07/21 09:37:51;;;;;;;7.83;6.90;;;;;;;;;;5022897;28;20186;-78
2022/07/21 09:40:27;;;;;;;7.67;6.97;;;;;;;;;;5028862;28;20192;-77
2022/07/21 09:43:04;;;;;;;8.20;7.40;;;;;;;;;;5028435;28;20209;-77
2022/07/21 09:45:41;;;;;;;8.43;7.60;;;;;;;;;;5029326;28;20186;-77
2022/07/21 09:48:32;;;;;;;8.07;7.37;;;;;;;;;;5033253;28;20189;-76
2022/07/21 09:51:24;;;;;;;9.43;7.60;;;;;;;;;;5008569;28;20225;-78
2022/07/21 09:54:02;;;;;;;8.47;7.67;;;;;;;;;;5026988;28;20191;-77
2022/07/21 09:56:34;;;;;;;7.50;6.80;;;;;;;;;;5028460;28;20263;-78
2022/07/21 09:59:11;;;;;;;8.23;6.93;;;;;;;;;;5032327;28;20184;-77
2022/07/21 10:01:50;;;;;;;7.27;6.60;;;;;;;;;;5037049;28;20761;-77
2022/07/21 10:04:27;;;;;;;7.20;6.20;;;;;;;;;;5030050;28;20217;-77
2022/07/21 10:07:04;;;;;;;7.63;7.00;;;;;;;;;;5029539;28;20239;-77
2022/07/21 10:09:37;;;;;;;7.03;6.43;;;;;;;;;;5032637;28;20739;-77
2022/07/21 10:12:13;;;;;;;7.37;6.30;;;;;;;;;;5029984;28;20213;-77
2022/07/21 10:14:50;;;;;;;7.23;6.57;;;;;;;;;;5027316;28;20263;-77
2022/07/21 10:17:26;;;;;;;6.93;6.33;;;;;;;;;;5029017;28;20213;-77
2022/07/21 10:20:16;;;;;;;6.37;5.83;;;;;;;;;;5030332;28;20189;-77
2022/07/21 10:23:09;;;;;;;7.63;6.83;;;;;;;;;;5025865;28;20217;-77
2022/07/21 10:25:46;;;;;;;7.77;7.00;;;;;;;;;;5025689;28;20755;-76
2022/07/21 10:28:28;;;;;;;7.60;6.90;;;;;;;;;;5027304;28;20195;-77
2022/07/21 10:31:16;;;;;;;7.03;6.43;;;;;;;;;;5037521;28;20210;-77
2022/07/21 10:33:52;;;;;;;7.33;6.67;;;;;;;;;;5025273;28;20236;-77
2022/07/21 10:36:49;;;;;;;7.77;6.03;;;;;;;;;;5025941;28;20217;-77
2022/07/21 10:39:27;;;;;;;7.03;6.43;;;;;;;;;;5027324;28;20188;-75
2022/07/21 10:42:16;;;;;;;7.23;6.53;;;;;;;;;;5026984;28;20210;-78
2022/07/21 10:44:52;;;;;;;6.77;6.17;;;;;;;;;;5028150;28;20193;-77
2022/07/21 10:47:28;;;;;;;6.77;6.07;;;;;;;;;;5025141;28;20224;-75
2022/07/21 10:50:04;;;;;;;6.37;5.83;;;;;;;;;;5025844;28;20839;-73
2022/07/21 10:52:39;;;;;;;6.10;5.60;;;;;;;;;;5025355;28;20206;-72
2022/07/21 10:55:09;;;;;;;5.77;5.27;;;;;;;;;;5022318;28;20177;-75
2022/07/21 10:57:40;;;;;;;8.57;5.60;;;;;;;;;;5023426;28;20232;-77
2022/07/21 11:00:19;;;;;;;9.87;5.30;;;;;;;;;;5022897;28;20183;-76
2022/07/21 11:03:00;;;;;;;6.03;5.43;;;;;;;;;;5021467;28;20218;-75
2022/07/21 11:05:37;;;;;;;6.00;5.40;;;;;;;;;;5027233;28;20730;-75
2022/07/21 11:08:16;;;;;;;6.30;5.40;;;;;;;;;;5027092;28;20271;-74
2022/07/21 11:10:52;;;;;;;5.63;5.13;;;;;;;;;;5022726;28;20673;-72
2022/07/21 11:13:30;;;;;;;6.47;5.87;;;;;;;;;;5016980;28;20686;-73
2022/07/21 11:16:02;;;;;;;6.20;5.70;;;;;;;;;;5023070;28;20336;-71
2022/07/21 11:18:34;;;;;;;7.27;5.80;;;;;;;;;;5021237;28;20182;-71
2022/07/21 11:21:14;;;;;;;6.17;5.47;;;;;;;;;;5022303;28;20193;-71
2022/07/21 11:23:52;;;;;;;5.97;5.47;;;;;;;;;;5030007;28;20216;-71
2022/07/21 11:26:29;;;;;;;5.33;4.93;;;;;;;;;;5027817;28;20186;-71
2022/07/21 11:29:09;;;;;;;5.90;5.30;;;;;;;;;;5029736;28;20196;-74
2022/07/21 11:31:50;;;;;;;6.30;5.70;;;;;;;;;;5026104;28;20749;-73
2022/07/21 11:34:26;;;;;;;6.30;5.40;;;;;;;;;;5022573;28;20180;-73
2022/07/21 11:37:07;;;;;;;5.90;5.40;;;;;;;;;;5027549;28;20240;-73
2022/07/21 11:39:39;;;;;;;6.40;5.77;;;;;;;;;;5023036;28;20260;-73
2022/07/21 11:42:11;;;;;;;6.00;5.50;;;;;;;;;;5022181;28;20630;-73
2022/07/21 11:44:47;;;;;;;6.60;6.00;;;;;;;;;;5025148;28;20196;-73
2022/07/21 11:47:25;;;;;;;6.23;5.63;;;;;;;;;;5024250;28;20181;-73
2022/07/21 11:49:56;;;;;;;6.60;6.00;;;;;;;;;;5026131;28;20203;-73
2022/07/21 11:52:34;;;;;;;7.07;6.47;;;;;;;;;;5025977;28;20229;-73
2022/07/21 11:55:09;;;;;;;6.80;6.20;;;;;;;;;;5028030;28;20209;-73
2022/07/21 11:57:46;;;;;;;6.93;6.27;;;;;;;;;;5026097;28;20182;-73
2022/07/21 12:00:23;;;;;;;6.67;6.00;;;;;;;;;;5028437;28;20870;-73
2022/07/21 12:03:06;;;;;;;7.67;6.47;;;;;;;;;;5024124;28;20217;-73
2022/07/21 12:05:39;;;;;;;6.37;5.83;;;;;;;;;;5022795;28;20196;-73
2022/07/21 12:08:15;;;;;;;7.13;6.53;;;;;;;;;;5013612;28;20304;-77
2022/07/21 12:10:51;;;;;;;8.73;6.80;;;;;;;;;;5024487;28;20210;-79
2022/07/21 12:13:27;;;;;;;7.13;6.50;;;;;;;;;;5026462;28;20694;-75
2022/07/21 12:16:02;;;;;;;6.60;6.00;;;;;;;;;;5026199;28;20718;-76
2022/07/21 12:18:37;;;;;;;7.30;6.70;;;;;;;;;;5024551;28;20281;-77
2022/07/21 12:21:13;;;;;;;6.73;6.23;;;;;;;;;;5029210;28;20723;-77
2022/07/21 12:23:52;;;;;;;7.47;6.40;;;;;;;;;;5024660;28;20194;-75
2022/07/21 12:26:29;;;;;;;7.00;6.30;;;;;;;;;;5028597;28;20202;-75
2022/07/21 12:29:04;;;;;;;7.97;6.33;;;;;;;;;;5026009;28;20190;-75
2022/07/21 12:31:35;;;;;;;7.10;6.40;;;;;;;;;;5030643;28;20213;-75
2022/07/21 12:34:17;;;;;;;9.13;6.40;;;;;;;;;;5028195;28;20190;-75
2022/07/21 12:36:54;;;;;;;7.47;6.13;;;;;;;;;;5030355;28;20190;-77
2022/07/21 12:42:34;;;;;;;7.60;5.80;;;;;;;;;;5023144;28;20253;-76
2022/07/21 12:45:17;;;;;;;7.60;6.67;;;;;;;;;;5023823;28;20202;-78
2022/07/21 12:48:10;;;;;;;6.53;5.93;;;;;;;;;;5027416;28;20185;-75
2022/07/21 12:50:59;;;;;;;6.53;6.00;;;;;;;;;;5030349;28;20266;-77
2022/07/21 12:53:36;;;;;;;6.73;6.10;;;;;;;;;;5026382;28;20231;-78
2022/07/21 12:56:03;;;;;;;6.17;5.57;;;;;;;;;;5037831;28;20202;-78
2022/07/21 12:58:29;;;;;;;7.90;5.80;;;;;;;;;;5022055;28;20186;-78
2022/07/21 13:00:56;;;;;;;7.07;6.50;;;;;;;;;;5016909;28;20217;-78
2022/07/21 13:03:22;;;;;;;7.23;6.10;;;;;;;;;;5038730;28;20217;-78
2022/07/21 13:05:48;;;;;;;7.30;6.60;;;;;;;;;;5057033;28;20213;-78
2022/07/21 13:08:15;;;;;;;7.03;6.37;;;;;;;;;;5036976;28;20308;-78
2022/07/21 13:10:41;;;;;;;6.70;6.10;;;;;;;;;;5036655;28;20214;-78
2022/07/21 13:13:07;;;;;;;6.80;6.20;;;;;;;;;;5037251;28;20235;-78
2022/07/21 13:15:33;;;;;;;7.30;6.17;;;;;;;;;;5034651;28;20193;-78
2022/07/21 13:18:00;;;;;;;6.20;5.60;;;;;;;;;;5045633;28;20211;-79
2022/07/21 13:20:26;;;;;;;6.97;6.37;;;;;;;;;;5039131;28;20196;-78
2022/07/21 13:22:52;;;;;;;6.83;5.90;;;;;;;;;;5003340;28;20259;-78
2022/07/21 13:25:18;;;;;;;6.13;5.53;;;;;;;;;;5036068;28;20190;-79
2022/07/21 13:27:44;;;;;;;5.87;5.37;;;;;;;;;;5028364;28;20188;-79
2022/07/21 13:30:11;;;;;;;5.97;5.47;;;;;;;;;;5050050;28;20208;-78
2022/07/21 13:32:37;;;;;;;6.00;5.50;;;;;;;;;;5032482;28;20910;-78
2022/07/21 13:35:04;;;;;;;5.87;5.37;;;;;;;;;;5038567;28;20198;-79
2022/07/21 13:37:31;;;;;;;6.67;6.00;;;;;;;;;;5030421;28;20263;-77
2022/07/21 13:39:57;;;;;;;5.40;4.90;;;;;;;;;;5035900;28;20188;-80
2022/07/21 13:42:23;;;;;;;6.97;5.90;;;;;;;;;;5021850;28;20212;-80
2022/07/21 13:44:49;;;;;;;6.27;5.20;;;;;;;;;;5035543;28;20188;-80
2022/07/21 13:47:16;;;;;;;6.10;5.60;;;;;;;;;;5019666;28;20669;-80
2022/07/21 13:49:42;;;;;;;5.97;5.30;;;;;;;;;;5036129;28;20206;-80
2022/07/21 13:52:08;;;;;;;6.13;5.23;;;;;;;;;;5019077;28;20292;-80
2022/07/21 13:54:35;;;;;;;5.53;5.03;;;;;;;;;;5032891;28;20190;-80
2022/07/21 13:57:01;;;;;;;6.03;5.53;;;;;;;;;;5007766;28;20196;-79
2022/07/21 13:59:28;;;;;;;8.70;6.10;;;;;;;;;;5020056;28;20341;-79
2022/07/21 14:01:55;;;;;;;6.90;6.30;;;;;;;;;;5033455;28;20264;-80
2022/07/21 14:04:21;;;;;;;6.57;5.93;;;;;;;;;;5032576;28;20196;-79
2022/07/21 14:06:49;;;;;;;6.20;5.70;;;;;;;;;;5037844;28;20189;-81
2022/07/21 14:09:16;;;;;;;5.53;4.90;;;;;;;;;;5020484;28;20613;-80
2022/07/21 15:11:56;;;;;;;6.63;6.00;;;;;;;;;;5091511;27;20702;-77
2022/07/21 15:14:23;;;;;;;6.83;6.10;;;;;;;;;;5079347;28;20200;-77
2022/07/21 15:16:49;;;;;;;6.97;6.27;;;;;;;;;;5073056;28;20861;-77
2022/07/21 15:19:15;;;;;;;6.83;6.20;;;;;;;;;;5083921;28;20295;-77
2022/07/21 15:21:42;;;;;;;5.90;5.40;;;;;;;;;;5074933;28;20195;-77
2022/07/21 15:24:08;;;;;;;6.03;5.50;;;;;;;;;;5081937;28;20267;-78
2022/07/21 15:26:35;;;;;;;6.13;5.43;;;;;;;;;;5076667;28;20325;-77
2022/07/21 15:29:01;;;;;;;6.23;5.37;;;;;;;;;;5080276;28;20173;-77
2022/07/21 15:31:31;;;;;;;5.73;5.23;;;;;;;;;;5074606;28;20177;-77
2022/07/21 15:33:57;;;;;;;5.57;5.07;;;;;;;;;;5080790;28;20170;-77
2022/07/21 15:36:23;;;;;;;5.33;4.87;;;;;;;;;;5084786;28;20192;-78
2022/07/21 15:38:50;;;;;;;5.87;5.37;;;;;;;;;;5076459;28;20561;-77
2022/07/21 15:41:17;;;;;;;6.20;5.53;;;;;;;;;;5079016;28;20197;-77
2022/07/21 15:43:43;;;;;;;5.33;4.87;;;;;;;;;;5080540;28;20209;-78
2022/07/21 15:46:10;;;;;;;6.37;5.73;;;;;;;;;;5077941;28;20187;-78
2022/07/21 15:48:36;;;;;;;5.80;5.20;;;;;;;;;;5082648;28;20667;-78
2022/07/21 15:51:03;;;;;;;5.80;5.30;;;;;;;;;;5060450;28;20186;-78
2022/07/21 15:53:29;;;;;;;5.70;4.97;;;;;;;;;;5085330;28;20204;-78
2022/07/21 15:55:55;;;;;;;5.93;5.30;;;;;;;;;;5088026;28;20183;-78
2022/07/21 15:58:21;;;;;;;6.10;5.50;;;;;;;;;;5088354;28;20178;-77
2022/07/21 16:00:48;;;;;;;5.93;5.20;;;;;;;;;;5077241;28;20205;-80
2022/07/21 16:03:14;;;;;;;5.73;5.20;;;;;;;;;;5084777;28;20192;-80
2022/07/21 16:05:40;;;;;;;5.60;5.10;;;;;;;;;;5095183;28;20176;-78
2022/07/21 16:08:06;;;;;;;6.23;5.40;;;;;;;;;;5079689;28;20186;-80
2022/07/21 16:10:32;;;;;;;5.80;5.30;;;;;;;;;;5078358;28;20233;-78
2022/07/21 16:12:59;;;;;;;6.90;5.30;;;;;;;;;;5063667;28;20553;-78
2022/07/21 16:15:25;;;;;;;5.67;5.17;;;;;;;;;;5068621;28;20197;-78